Time;durP1;ratioP1;P1;durP2;ratioP2;P2;SDS_P1;SDS_P2;PMS_P1;PMS_P2;Temp;Humidity;BMP_temperature;BMP_pressure;BME280_temperature;BME280_humidity;BME280_pressure;Samples;Min_cycle;Max_cycle;Signal;HPM_P1;HPM_P2
2021/01/16 00:00:32;;;;;;;41.03;22.42;;;;;;;-2.84;100.00;96884.94;1040449;28;20405;-77
2021/01/16 00:01:03;;;;;;;41.97;22.15;;;;;;;-2.95;100.00;96862.06;1032315;28;20029;-77
2021/01/16 00:01:34;;;;;;;44.45;22.42;;;;;;;-3.16;100.00;96829.28;1036185;28;20253;-76
2021/01/16 00:02:05;;;;;;;40.03;21.65;;;;;;;-2.92;100.00;96877.50;1032194;28;20285;-77
2021/01/16 00:02:36;;;;;;;45.42;23.70;;;;;;;-2.90;100.00;96873.09;1032233;28;20030;-76
2021/01/16 00:03:09;;;;;;;43.97;22.67;;;;;;;-3.02;100.00;96860.66;1040406;28;20021;-77
2021/01/16 00:03:40;;;;;;;44.15;22.25;;;;;;;-2.89;100.00;96871.31;1027984;28;20026;-76
2021/01/16 00:04:11;;;;;;;44.22;22.10;;;;;;;-2.79;100.00;96876.94;1036298;28;20021;-77
2021/01/16 00:04:42;;;;;;;43.30;22.35;;;;;;;-2.81;100.00;96878.78;1024305;28;20023;-77
2021/01/16 00:05:16;;;;;;;41.15;22.08;;;;;;;-2.86;100.00;96877.25;1032264;28;20019;-76
2021/01/16 00:05:47;;;;;;;42.65;22.60;;;;;;;-2.79;100.00;96875.19;1040238;28;20021;-77
2021/01/16 00:06:28;;;;;;;44.88;23.35;;;;;;;-2.91;100.00;96855.81;1024205;29;20015;-76
2021/01/16 00:06:59;;;;;;;43.28;22.30;;;;;;;-2.82;100.00;96877.09;1036284;28;20648;-77
2021/01/16 00:07:30;;;;;;;42.83;22.48;;;;;;;-2.85;100.00;96878.91;1036136;28;20323;-77
2021/01/16 00:08:10;;;;;;;42.80;22.10;;;;;;;-2.81;100.00;96884.81;1028148;28;20146;-77
2021/01/16 00:08:42;;;;;;;42.83;22.63;;;;;;;-2.80;100.00;96883.03;1032279;28;20026;-77
2021/01/16 00:09:13;;;;;;;43.90;21.85;;;;;;;-2.77;100.00;96875.97;1028209;28;20262;-77
2021/01/16 00:09:44;;;;;;;45.28;22.42;;;;;;;-3.03;100.00;96848.56;1032205;28;20348;-76
2021/01/16 00:10:15;;;;;;;45.58;22.50;;;;;;;-2.83;100.00;96881.44;1032231;28;20014;-77
2021/01/16 00:10:48;;;;;;;43.50;22.10;;;;;;;-2.87;100.00;96867.75;1032245;28;20049;-77
2021/01/16 00:11:19;;;;;;;43.38;22.90;;;;;;;-2.95;100.00;96859.47;1032245;28;20025;-77
2021/01/16 00:11:52;;;;;;;42.75;21.90;;;;;;;-2.76;100.00;96882.84;1032112;28;20809;-76
2021/01/16 00:12:24;;;;;;;47.95;23.88;;;;;;;-2.83;100.00;96883.22;1032053;28;20049;-77
2021/01/16 00:12:54;;;;;;;42.63;22.52;;;;;;;-2.80;100.00;96880.44;1032225;28;20796;-77
2021/01/16 00:13:28;;;;;;;43.60;22.75;;;;;;;-3.13;100.00;96822.19;1032314;28;20260;-77
2021/01/16 00:13:58;;;;;;;44.47;22.25;;;;;;;-2.90;100.00;96878.28;1028043;28;20150;-77
2021/01/16 00:14:29;;;;;;;41.53;22.15;;;;;;;-2.91;100.00;96870.56;1032108;28;20261;-77
2021/01/16 00:15:00;;;;;;;41.95;22.55;;;;;;;-2.81;100.00;96874.41;1028244;28;20037;-77
2021/01/16 00:15:31;;;;;;;41.42;21.67;;;;;;;-2.77;100.00;96878.56;1040299;28;20025;-77
2021/01/16 00:16:03;;;;;;;41.92;21.48;;;;;;;-2.88;100.00;96863.47;1027986;28;20115;-77
2021/01/16 00:16:34;;;;;;;45.80;22.15;;;;;;;-2.83;100.00;96880.63;1032219;28;20475;-77
2021/01/16 00:17:04;;;;;;;40.13;21.65;;;;;;;-2.82;100.00;96879.69;1032231;28;20023;-77
2021/01/16 00:17:36;;;;;;;40.42;21.85;;;;;;;-2.77;100.00;96881.19;1036190;28;20018;-77
2021/01/16 00:18:09;;;;;;;40.45;21.55;;;;;;;-2.97;100.00;96863.06;1032161;28;20443;-76
2021/01/16 00:18:40;;;;;;;40.42;20.90;;;;;;;-2.95;100.00;96869.84;1036183;28;20269;-77
2021/01/16 00:19:10;;;;;;;42.33;22.75;;;;;;;-2.93;100.00;96878.41;1032181;28;20832;-77
2021/01/16 00:19:41;;;;;;;41.38;22.25;;;;;;;-2.96;100.00;96873.38;1032245;28;20072;-77
2021/01/16 00:20:12;;;;;;;42.42;22.08;;;;;;;-2.98;100.00;96864.78;1027997;28;20022;-76
2021/01/16 00:20:46;;;;;;;42.45;22.40;;;;;;;-3.00;100.00;96852.78;1028232;28;20022;-77
2021/01/16 00:21:17;;;;;;;39.67;21.88;;;;;;;-2.79;100.00;96885.56;1032204;28;20029;-77
2021/01/16 00:21:47;;;;;;;45.38;22.60;;;;;;;-2.86;100.00;96873.78;1024229;29;20786;-77
2021/01/16 00:22:18;;;;;;;46.25;23.42;;;;;;;-2.97;100.00;96861.28;1031966;28;20525;-76
2021/01/16 00:22:49;;;;;;;44.97;22.55;;;;;;;-3.03;100.00;96866.75;1032320;28;20029;-77
2021/01/16 00:23:22;;;;;;;40.72;20.73;;;;;;;-2.99;100.00;96863.13;1036244;28;20025;-77
2021/01/16 00:23:52;;;;;;;42.90;21.30;;;;;;;-3.13;100.00;96848.16;1036270;28;20029;-77
2021/01/16 00:24:23;;;;;;;37.88;19.80;;;;;;;-3.02;100.00;96858.06;1032023;28;20258;-77
2021/01/16 00:24:54;;;;;;;43.20;22.77;;;;;;;-2.93;100.00;96880.19;1032196;28;20396;-77
2021/01/16 00:25:25;;;;;;;39.60;20.85;;;;;;;-2.96;100.00;96877.72;1036343;28;20204;-76
2021/01/16 00:25:56;;;;;;;45.13;23.02;;;;;;;-3.09;100.00;96848.88;1032182;28;20049;-77
2021/01/16 00:26:26;;;;;;;40.45;21.25;;;;;;;-2.89;100.00;96876.50;1035723;28;20076;-77
2021/01/16 00:26:57;;;;;;;37.42;20.40;;;;;;;-3.13;100.00;96832.56;1028049;28;20258;-77
2021/01/16 00:27:28;;;;;;;40.45;20.88;;;;;;;-2.96;100.00;96863.00;1032307;28;20014;-77
2021/01/16 00:27:58;;;;;;;39.28;21.45;;;;;;;-2.92;100.00;96863.69;1028176;28;20027;-77
2021/01/16 00:28:31;;;;;;;38.20;21.33;;;;;;;-2.83;100.00;96878.00;1036094;28;20026;-77
2021/01/16 00:29:02;;;;;;;40.78;21.67;;;;;;;-2.97;100.00;96853.50;1032072;28;20019;-77
2021/01/16 00:29:33;;;;;;;38.15;21.23;;;;;;;-2.87;100.00;96872.94;1032210;28;20033;-76
2021/01/16 00:30:06;;;;;;;39.53;19.92;;;;;;;-2.82;100.00;96887.47;1032283;28;20026;-77
2021/01/16 00:30:37;;;;;;;39.30;20.80;;;;;;;-2.78;100.00;96883.84;1031986;28;20062;-77
2021/01/16 00:31:07;;;;;;;39.30;20.80;;;;;;;-2.78;100.00;96876.88;1036209;28;20145;-76
2021/01/16 00:31:38;;;;;;;37.97;20.33;;;;;;;-3.01;100.00;96859.75;1032146;28;20019;-77
2021/01/16 00:32:09;;;;;;;41.00;21.70;;;;;;;-2.97;100.00;96865.66;1040275;28;20108;-77
2021/01/16 00:32:40;;;;;;;37.78;19.95;;;;;;;-2.93;100.00;96862.00;1036118;28;20022;-77
2021/01/16 00:33:21;;;;;;;41.00;21.15;;;;;;;-2.80;100.00;96873.50;1036155;28;20021;-76
2021/01/16 00:33:52;;;;;;;34.78;19.70;;;;;;;-2.93;100.00;96865.41;1032173;28;20018;-77
2021/01/16 00:34:22;;;;;;;38.53;20.55;;;;;;;-2.94;100.00;96884.53;1036210;28;20020;-77
2021/01/16 00:34:53;;;;;;;40.33;21.00;;;;;;;-2.93;100.00;96877.56;1027936;28;20019;-76
2021/01/16 00:35:25;;;;;;;38.00;19.90;;;;;;;-3.26;100.00;96827.09;1040344;28;20075;-77
2021/01/16 00:35:56;;;;;;;38.45;20.23;;;;;;;-2.88;100.00;96878.22;1032128;28;20085;-76
2021/01/16 00:36:27;;;;;;;36.00;19.67;;;;;;;-2.82;100.00;96884.88;1032145;28;20109;-77
2021/01/16 00:36:58;;;;;;;35.78;19.67;;;;;;;-2.82;100.00;96884.88;1027958;28;20033;-77
2021/01/16 00:37:29;;;;;;;39.13;19.83;;;;;;;-2.96;100.00;96860.38;1036224;28;20045;-77
2021/01/16 00:38:00;;;;;;;39.40;21.23;;;;;;;-2.83;100.00;96875.41;1028096;28;20515;-77
2021/01/16 00:38:37;;;;;;;37.17;20.08;;;;;;;-2.76;100.00;96882.00;1028167;28;20398;-77
2021/01/16 00:39:08;;;;;;;41.38;20.85;;;;;;;-2.91;100.00;96876.63;1032022;28;20031;-77
2021/01/16 00:39:39;;;;;;;38.90;19.73;;;;;;;-2.87;100.00;96883.34;1036195;28;20064;-77
2021/01/16 00:40:11;;;;;;;38.67;20.05;;;;;;;-2.88;100.00;96878.22;1028217;28;20085;-76
2021/01/16 00:40:42;;;;;;;37.63;20.63;;;;;;;-3.00;100.00;96860.59;1028248;28;20379;-77
2021/01/16 00:41:15;;;;;;;37.97;20.38;;;;;;;-2.81;100.00;96887.41;1028805;28;20061;-77
2021/01/16 00:41:46;;;;;;;41.58;22.05;;;;;;;-2.82;100.00;96882.28;1030557;28;20027;-77
2021/01/16 00:42:17;;;;;;;40.20;20.67;;;;;;;-2.91;100.00;96879.22;1026415;29;20023;-76
2021/01/16 00:42:50;;;;;;;38.05;20.10;;;;;;;-2.94;100.00;96887.13;1034306;28;20042;-77
2021/01/16 00:43:21;;;;;;;36.33;19.85;;;;;;;-2.98;100.00;96880.38;1034330;28;20050;-77
2021/01/16 00:43:52;;;;;;;38.00;18.98;;;;;;;-2.93;100.00;96888.81;1034500;28;20269;-77
2021/01/16 00:44:23;;;;;;;36.58;20.48;;;;;;;-2.87;100.00;96887.72;1038744;28;20080;-77
2021/01/16 00:44:54;;;;;;;35.28;19.73;;;;;;;-3.04;100.00;96863.31;1030960;28;20022;-76
2021/01/16 00:45:25;;;;;;;39.70;20.02;;;;;;;-2.93;100.00;96888.81;1034487;28;20026;-77
2021/01/16 00:45:56;;;;;;;37.47;20.98;;;;;;;-3.16;100.00;96837.06;1030733;28;20022;-77
2021/01/16 00:46:27;;;;;;;37.55;20.20;;;;;;;-2.97;100.00;96863.88;1034742;28;20026;-77
2021/01/16 00:46:57;;;;;;;40.00;20.92;;;;;;;-3.13;100.00;96837.78;1038511;28;20033;-77
2021/01/16 00:47:28;;;;;;;38.10;20.95;;;;;;;-2.79;100.00;96884.75;1034975;28;20093;-77
2021/01/16 00:48:17;;;;;;;39.28;20.95;;;;;;;-2.86;100.00;96887.63;1038820;28;20033;-77
2021/01/16 00:48:48;;;;;;;35.80;18.83;;;;;;;-2.91;100.00;96891.34;1030819;28;20030;-77
2021/01/16 00:49:18;;;;;;;36.78;19.80;;;;;;;-3.09;100.00;96851.47;1034820;28;20026;-77
2021/01/16 00:49:49;;;;;;;38.65;20.58;;;;;;;-3.06;100.00;96859.13;1030419;28;20015;-77
2021/01/16 00:50:20;;;;;;;36.53;18.95;;;;;;;-2.94;100.00;96888.91;1030698;28;20086;-76
2021/01/16 00:50:52;;;;;;;40.53;20.88;;;;;;;-2.91;100.00;96894.81;1034779;28;20018;-77
2021/01/16 00:51:24;;;;;;;40.60;21.77;;;;;;;-2.89;100.00;96889.50;1030965;28;20262;-76
2021/01/16 00:51:55;;;;;;;35.83;20.08;;;;;;;-2.92;100.00;96890.50;1034827;28;20288;-77
2021/01/16 00:52:26;;;;;;;38.58;20.85;;;;;;;-3.10;100.00;96849.75;1034883;28;20281;-77
2021/01/16 00:52:58;;;;;;;42.28;22.50;;;;;;;-3.09;100.00;96870.47;1031214;28;20019;-77
2021/01/16 00:53:28;;;;;;;39.22;22.33;;;;;;;-2.92;100.00;96889.69;1034605;28;20038;-77
2021/01/16 00:53:59;;;;;;;40.08;20.77;;;;;;;-2.93;100.00;96891.41;1028392;28;20258;-77
2021/01/16 00:54:31;;;;;;;38.85;20.55;;;;;;;-2.94;100.00;96894.09;1028124;28;20039;-76
2021/01/16 00:55:04;;;;;;;39.05;20.73;;;;;;;-2.98;100.00;96895.97;1032184;28;20404;-77
2021/01/16 00:55:35;;;;;;;41.65;21.73;;;;;;;-2.98;100.00;96890.78;1027843;28;20262;-76
2021/01/16 00:56:06;;;;;;;44.55;22.83;;;;;;;-2.96;100.00;96899.38;1032001;28;20249;-76
2021/01/16 00:56:36;;;;;;;39.03;21.38;;;;;;;-3.13;100.00;96870.72;1028139;28;20023;-77
2021/01/16 00:57:07;;;;;;;40.53;20.58;;;;;;;-3.05;100.00;96890.22;1028060;28;20026;-77
2021/01/16 00:57:38;;;;;;;38.45;20.73;;;;;;;-2.91;100.00;96892.22;1019903;29;20128;-76
2021/01/16 00:58:11;;;;;;;39.72;21.00;;;;;;;-2.97;100.00;96889.88;1036188;28;20096;-77
2021/01/16 00:58:42;;;;;;;40.10;21.75;;;;;;;-2.95;100.00;96890.63;1020020;29;20118;-77
2021/01/16 00:59:13;;;;;;;38.03;20.13;;;;;;;-2.94;100.00;96894.94;1027990;28;20250;-77
2021/01/16 00:59:44;;;;;;;40.17;21.58;;;;;;;-2.94;100.00;96896.69;1028004;28;20066;-77
2021/01/16 01:00:15;;;;;;;43.38;22.40;;;;;;;-2.95;100.00;96892.41;1023989;29;20020;-77
2021/01/16 01:00:49;;;;;;;42.72;22.63;;;;;;;-2.89;100.00;96898.16;1028086;28;20494;-77
2021/01/16 01:01:20;;;;;;;36.30;20.98;;;;;;;-2.89;100.00;96900.78;1028049;28;20709;-77
2021/01/16 01:01:51;;;;;;;39.28;20.80;;;;;;;-2.91;100.00;96902.59;1024003;29;20274;-77
2021/01/16 01:02:22;;;;;;;40.08;21.15;;;;;;;-2.92;100.00;96903.50;1040031;28;20013;-77
2021/01/16 01:02:53;;;;;;;41.83;21.00;;;;;;;-3.08;100.00;96892.13;1020156;29;20020;-77
2021/01/16 01:03:24;;;;;;;42.50;21.38;;;;;;;-3.16;100.00;96887.25;1027812;28;20262;-76
2021/01/16 01:03:55;;;;;;;38.80;20.92;;;;;;;-2.97;100.00;96897.66;1023900;28;20313;-77
2021/01/16 01:04:26;;;;;;;41.63;22.63;;;;;;;-2.99;100.00;96907.28;1028125;28;20392;-77
2021/01/16 01:04:56;;;;;;;40.42;22.08;;;;;;;-2.96;100.00;96899.38;1032040;28;20109;-77
2021/01/16 01:05:27;;;;;;;43.28;21.63;;;;;;;-3.21;100.00;96863.25;1036124;28;20021;-76
2021/01/16 01:05:58;;;;;;;38.90;20.05;;;;;;;-3.01;100.00;96896.13;1027855;28;20030;-77
2021/01/16 01:06:29;;;;;;;38.70;21.60;;;;;;;-3.03;100.00;96906.59;1031891;28;20029;-77
2021/01/16 01:07:00;;;;;;;42.47;21.75;;;;;;;-3.04;100.00;96891.91;1023999;28;20106;-76
2021/01/16 01:07:31;;;;;;;36.40;20.00;;;;;;;-2.97;100.00;96902.88;1032052;28;20028;-77
2021/01/16 01:08:02;;;;;;;40.45;21.08;;;;;;;-2.99;100.00;96896.91;1023877;29;20266;-76
2021/01/16 01:08:33;;;;;;;40.45;21.77;;;;;;;-3.05;100.00;96881.56;1031980;28;20028;-77
2021/01/16 01:09:04;;;;;;;38.58;20.88;;;;;;;-3.11;100.00;96874.06;1028011;28;20495;-76
2021/01/16 01:09:34;;;;;;;38.15;20.73;;;;;;;-2.92;100.00;96900.91;1032137;28;20072;-77
2021/01/16 01:10:07;;;;;;;39.10;21.40;;;;;;;-2.90;100.00;96899.06;1035997;28;20022;-77
2021/01/16 01:10:40;;;;;;;39.60;20.67;;;;;;;-2.95;100.00;96901.03;1027948;28;20427;-77
2021/01/16 01:11:11;;;;;;;39.33;20.63;;;;;;;-3.01;100.00;96883.13;1032101;28;20269;-77
2021/01/16 01:11:41;;;;;;;36.83;19.40;;;;;;;-3.09;100.00;96873.06;1031988;28;20254;-77
2021/01/16 01:12:12;;;;;;;37.95;20.48;;;;;;;-2.99;100.00;96899.50;1031994;28;20025;-77
2021/01/16 01:12:43;;;;;;;38.75;20.92;;;;;;;-3.18;100.00;96872.66;1035946;28;20125;-77
2021/01/16 01:13:14;;;;;;;38.15;20.67;;;;;;;-2.96;100.00;96909.75;1024081;28;20117;-76
2021/01/16 01:13:45;;;;;;;39.47;21.67;;;;;;;-3.07;100.00;96881.63;1036039;28;20017;-76
2021/01/16 01:14:17;;;;;;;38.95;20.05;;;;;;;-2.90;100.00;96898.25;1031945;28;20484;-76
2021/01/16 01:14:47;;;;;;;37.10;19.92;;;;;;;-2.98;100.00;96872.59;1027972;28;20018;-77
2021/01/16 01:15:18;;;;;;;39.70;20.20;;;;;;;-3.16;100.00;96845.69;1024111;29;20251;-77
2021/01/16 01:15:49;;;;;;;38.92;21.13;;;;;;;-2.82;100.00;96896.13;1027989;28;20062;-77
2021/01/16 01:16:20;;;;;;;37.20;20.42;;;;;;;-2.85;100.00;96906.66;1027953;28;20459;-77
2021/01/16 01:16:51;;;;;;;40.80;19.73;;;;;;;-2.92;100.00;96902.66;1027826;28;20026;-76
2021/01/16 01:17:22;;;;;;;35.95;20.73;;;;;;;-3.00;100.00;96879.59;1028024;28;20266;-77
2021/01/16 01:17:54;;;;;;;37.72;20.98;;;;;;;-2.96;100.00;96904.56;1027958;28;20026;-77
2021/01/16 01:18:25;;;;;;;39.63;20.67;;;;;;;-2.96;100.00;96908.91;1019972;28;20034;-76
2021/01/16 01:18:56;;;;;;;40.83;21.13;;;;;;;-2.94;100.00;96902.72;1027984;28;20270;-76
2021/01/16 01:19:27;;;;;;;38.00;19.58;;;;;;;-2.97;100.00;96889.88;1027966;28;20031;-75
2021/01/16 01:19:58;;;;;;;36.85;20.50;;;;;;;-2.86;100.00;96903.25;1032044;28;20416;-77
2021/01/16 01:20:29;;;;;;;35.88;20.00;;;;;;;-2.86;100.00;96908.44;1035977;28;20021;-77
2021/01/16 01:21:00;;;;;;;37.55;20.83;;;;;;;-2.97;100.00;96891.63;1031913;28;20025;-77
2021/01/16 01:21:30;;;;;;;36.75;20.10;;;;;;;-3.02;100.00;96894.44;1032056;28;20117;-77
2021/01/16 01:22:01;;;;;;;38.30;20.73;;;;;;;-3.00;100.00;96881.38;1036241;28;20405;-77
2021/01/16 01:22:35;;;;;;;37.53;20.38;;;;;;;-2.95;100.00;96900.19;1035829;28;20025;-77
2021/01/16 01:23:06;;;;;;;33.55;19.27;;;;;;;-3.03;100.00;96887.53;1036082;28;20417;-77
2021/01/16 01:23:37;;;;;;;40.40;20.75;;;;;;;-2.91;100.00;96900.00;1028081;28;20258;-77
2021/01/16 01:24:08;;;;;;;37.08;20.15;;;;;;;-3.00;100.00;96900.41;1031932;28;20034;-77
2021/01/16 01:24:40;;;;;;;41.25;21.15;;;;;;;-2.97;100.00;96900.25;1027909;28;20031;-77
2021/01/16 01:25:11;;;;;;;36.28;20.73;;;;;;;-2.92;100.00;96905.25;1040068;28;20264;-77
2021/01/16 01:25:42;;;;;;;40.72;20.70;;;;;;;-2.98;100.00;96882.97;1031977;28;20257;-76
2021/01/16 01:26:13;;;;;;;36.50;19.70;;;;;;;-2.83;100.00;96904.84;1031956;28;20250;-77
2021/01/16 01:26:45;;;;;;;38.13;20.20;;;;;;;-2.84;100.00;96905.75;1035930;28;20022;-76
2021/01/16 01:27:15;;;;;;;37.10;18.77;;;;;;;-2.95;100.00;96879.41;1031888;28;20026;-77
2021/01/16 01:27:49;;;;;;;36.38;19.13;;;;;;;-2.88;100.00;96896.41;1031926;28;20269;-77
2021/01/16 01:28:20;;;;;;;36.78;19.85;;;;;;;-2.93;100.00;96901.81;1028139;28;20402;-77
2021/01/16 01:28:51;;;;;;;35.08;19.27;;;;;;;-2.88;100.00;96902.44;1035910;28;20261;-77
2021/01/16 01:29:22;;;;;;;37.42;20.77;;;;;;;-3.06;100.00;96888.53;1019974;28;20024;-77
2021/01/16 01:29:53;;;;;;;38.03;19.92;;;;;;;-2.95;100.00;96902.78;1036006;28;20026;-76
2021/01/16 01:30:25;;;;;;;38.33;19.95;;;;;;;-2.98;100.00;96890.78;1019998;28;20032;-77
2021/01/16 01:30:55;;;;;;;37.90;19.38;;;;;;;-2.85;100.00;96904.06;1027919;28;20044;-76
2021/01/16 01:31:26;;;;;;;40.72;20.83;;;;;;;-2.91;100.00;96893.94;1027927;28;20278;-77
2021/01/16 01:31:57;;;;;;;35.17;19.63;;;;;;;-2.83;100.00;96904.84;1027981;28;20034;-77
2021/01/16 01:32:28;;;;;;;37.13;20.65;;;;;;;-2.86;100.00;96904.97;1027913;28;20022;-77
2021/01/16 01:32:59;;;;;;;36.15;19.65;;;;;;;-2.83;100.00;96904.00;1031804;28;20057;-77
2021/01/16 01:33:30;;;;;;;37.28;20.65;;;;;;;-2.79;100.00;96906.38;1027817;28;20523;-76
2021/01/16 01:34:01;;;;;;;34.03;18.35;;;;;;;-2.90;100.00;96891.28;1032036;28;20265;-77
2021/01/16 01:34:31;;;;;;;37.35;20.15;;;;;;;-2.79;100.00;96903.78;1028042;28;20387;-77
2021/01/16 01:35:03;;;;;;;36.60;19.45;;;;;;;-2.86;100.00;96898.03;1031822;28;20113;-76
2021/01/16 01:35:33;;;;;;;35.95;19.10;;;;;;;-2.92;100.00;96900.06;1027935;28;20033;-77
2021/01/16 01:36:05;;;;;;;40.35;19.73;;;;;;;-2.84;100.00;96908.34;1035929;28;20285;-76
2021/01/16 01:36:36;;;;;;;35.60;18.73;;;;;;;-2.86;100.00;96894.56;1032081;28;20022;-77
2021/01/16 01:37:07;;;;;;;35.28;19.17;;;;;;;-2.93;100.00;96909.59;1035787;28;20319;-77
2021/01/16 01:37:41;;;;;;;39.38;20.58;;;;;;;-2.95;100.00;96882.84;1035981;28;20737;-77
2021/01/16 01:38:19;;;;;;;38.28;19.55;;;;;;;-2.85;100.00;96904.91;1027419;28;20109;-76
2021/01/16 01:38:53;;;;;;;35.53;19.50;;;;;;;-3.05;100.00;96885.03;1035880;28;20677;-77
2021/01/16 01:39:24;;;;;;;34.40;18.35;;;;;;;-2.91;100.00;96907.78;1027730;28;20628;-77
2021/01/16 01:39:54;;;;;;;36.60;20.25;;;;;;;-2.90;100.00;96906.88;1031908;28;20265;-77
2021/01/16 01:40:26;;;;;;;36.20;19.17;;;;;;;-2.88;100.00;96907.63;1027917;28;20526;-77
2021/01/16 01:41:04;;;;;;;35.17;18.40;;;;;;;-2.98;100.00;96901.16;1031960;28;20450;-77
2021/01/16 01:41:37;;;;;;;35.25;19.10;;;;;;;-3.06;100.00;96893.72;1023772;29;20289;-76
2021/01/16 01:42:14;;;;;;;34.30;19.17;;;;;;;-3.03;100.00;96887.53;1031912;28;20266;-77
2021/01/16 01:42:46;;;;;;;35.08;18.63;;;;;;;-2.95;100.00;96906.22;1023990;29;20362;-77
2021/01/16 01:43:17;;;;;;;36.88;18.77;;;;;;;-3.03;100.00;96887.53;1031895;28;20257;-76
2021/01/16 01:43:48;;;;;;;37.78;20.08;;;;;;;-2.90;100.00;96896.47;1031806;28;20364;-76
2021/01/16 01:44:19;;;;;;;37.80;19.45;;;;;;;-2.86;100.00;96905.84;1035951;28;20038;-77
2021/01/16 01:44:50;;;;;;;35.05;19.42;;;;;;;-2.79;100.00;96908.97;1027959;28;20810;-77
2021/01/16 01:45:20;;;;;;;36.85;20.30;;;;;;;-2.81;100.00;96908.19;1031864;28;20018;-77
2021/01/16 01:45:51;;;;;;;34.67;19.08;;;;;;;-2.98;100.00;96882.97;1027854;28;20027;-77
2021/01/16 01:46:22;;;;;;;37.38;19.67;;;;;;;-2.94;100.00;96888.91;1031966;28;20129;-77
2021/01/16 01:46:53;;;;;;;36.50;19.23;;;;;;;-2.79;100.00;96910.72;1027815;28;20121;-77
2021/01/16 01:47:23;;;;;;;34.92;19.17;;;;;;;-2.96;100.00;96883.78;1019987;29;20020;-77
2021/01/16 01:47:54;;;;;;;35.50;18.83;;;;;;;-2.86;100.00;96905.84;1027813;28;20027;-76
2021/01/16 01:48:25;;;;;;;36.85;20.42;;;;;;;-2.86;100.00;96904.97;1023729;29;20047;-77
2021/01/16 01:48:56;;;;;;;40.60;20.67;;;;;;;-2.86;100.00;96904.97;1023966;29;20550;-77
2021/01/16 01:49:27;;;;;;;35.75;19.25;;;;;;;-3.06;100.00;96878.13;1023896;28;20365;-77
2021/01/16 01:49:58;;;;;;;38.78;20.55;;;;;;;-2.85;100.00;96904.91;1031847;28;20113;-76
2021/01/16 01:50:29;;;;;;;36.72;19.10;;;;;;;-2.92;100.00;96903.50;1024008;28;20031;-77
2021/01/16 01:51:00;;;;;;;38.63;20.45;;;;;;;-2.94;100.00;96889.75;1027837;28;20023;-77
2021/01/16 01:51:31;;;;;;;36.33;19.98;;;;;;;-2.85;100.00;96901.47;1031884;28;20046;-77
2021/01/16 01:52:02;;;;;;;36.08;19.75;;;;;;;-2.85;100.00;96901.47;1031633;28;20019;-77
2021/01/16 01:52:33;;;;;;;37.88;19.95;;;;;;;-2.97;100.00;96902.88;1031878;28;20249;-77
2021/01/16 01:53:04;;;;;;;36.85;20.85;;;;;;;-3.11;100.00;96887.88;1031867;28;20022;-76
2021/01/16 01:53:35;;;;;;;38.17;19.70;;;;;;;-3.09;100.00;96882.63;1035881;28;20249;-76
2021/01/16 01:54:06;;;;;;;37.78;20.10;;;;;;;-3.14;100.00;96858.63;1031689;28;20022;-76
2021/01/16 01:54:37;;;;;;;36.63;20.45;;;;;;;-2.98;100.00;96885.56;1035887;28;20244;-77
2021/01/16 01:55:10;;;;;;;38.53;20.45;;;;;;;-2.85;100.00;96896.28;1027887;28;20423;-77
2021/01/16 01:55:41;;;;;;;38.40;21.50;;;;;;;-2.98;100.00;96901.16;1027824;28;20265;-77
2021/01/16 01:56:12;;;;;;;40.95;22.30;;;;;;;-2.99;100.00;96902.09;1023778;29;20643;-77
2021/01/16 01:56:42;;;;;;;37.58;21.02;;;;;;;-3.10;100.00;96883.53;1027862;28;20114;-76
2021/01/16 01:57:14;;;;;;;41.92;21.48;;;;;;;-3.00;100.00;96903.00;1023788;29;20509;-77
2021/01/16 01:57:50;;;;;;;45.17;22.23;;;;;;;-2.94;100.00;96899.31;1027951;28;20031;-77
2021/01/16 01:58:23;;;;;;;39.72;20.20;;;;;;;-3.04;100.00;96881.50;1023745;29;20751;-77
2021/01/16 01:58:55;;;;;;;38.42;20.65;;;;;;;-2.94;100.00;96897.53;1027934;28;20630;-77
2021/01/16 01:59:26;;;;;;;41.17;22.13;;;;;;;-2.95;100.00;96895.84;1028001;28;20800;-77
2021/01/16 01:59:57;;;;;;;39.75;21.20;;;;;;;-3.00;100.00;96897.78;1027799;28;20019;-77
2021/01/16 02:00:28;;;;;;;43.33;21.73;;;;;;;-3.14;100.00;96879.41;1027945;28;20525;-76
2021/01/16 02:00:59;;;;;;;41.78;20.67;;;;;;;-3.06;100.00;96895.50;1031825;28;20345;-77
2021/01/16 02:01:30;;;;;;;42.35;21.38;;;;;;;-3.07;100.00;96902.41;1035971;28;20694;-77
2021/01/16 02:02:01;;;;;;;43.40;21.77;;;;;;;-3.04;100.00;96901.44;1023812;28;20027;-77
2021/01/16 02:02:33;;;;;;;42.67;22.25;;;;;;;-2.97;100.00;96891.63;1027745;28;20023;-77
2021/01/16 02:03:05;;;;;;;41.35;21.70;;;;;;;-2.89;100.00;96899.91;1023911;29;20263;-77
2021/01/16 02:03:35;;;;;;;41.45;21.30;;;;;;;-2.94;100.00;96892.34;1031639;28;20804;-76
2021/01/16 02:04:07;;;;;;;40.92;22.15;;;;;;;-3.09;100.00;96888.66;1027784;28;20289;-76
2021/01/16 02:04:38;;;;;;;44.17;21.83;;;;;;;-3.18;100.00;96859.69;1031776;28;20029;-77
2021/01/16 02:05:10;;;;;;;38.58;20.50;;;;;;;-2.92;100.00;96894.88;1027923;28;20747;-77
2021/01/16 02:05:41;;;;;;;40.40;21.50;;;;;;;-2.93;100.00;96894.00;1031815;28;20265;-77
2021/01/16 02:06:11;;;;;;;40.60;21.38;;;;;;;-2.92;100.00;96895.72;1031777;28;20761;-77
2021/01/16 02:06:42;;;;;;;45.45;21.92;;;;;;;-3.06;100.00;96874.72;1039925;28;20310;-77
2021/01/16 02:07:25;;;;;;;40.85;21.92;;;;;;;-3.05;100.00;96877.25;1023889;29;20407;-77
2021/01/16 02:07:58;;;;;;;39.22;20.80;;;;;;;-3.09;100.00;96878.28;1023918;29;20375;-77
2021/01/16 02:08:29;;;;;;;44.15;22.65;;;;;;;-2.99;100.00;96883.06;1027737;28;20691;-76
2021/01/16 02:09:00;;;;;;;43.78;22.60;;;;;;;-3.00;100.00;96883.97;1031857;28;20293;-77
2021/01/16 02:09:30;;;;;;;46.22;22.75;;;;;;;-2.90;100.00;96888.69;1023912;29;20031;-77
2021/01/16 02:10:01;;;;;;;41.30;22.05;;;;;;;-2.95;100.00;96889.81;1035941;28;20022;-77
2021/01/16 02:10:33;;;;;;;42.13;21.73;;;;;;;-2.95;100.00;96890.63;1031868;28;20026;-77
2021/01/16 02:11:04;;;;;;;44.53;22.13;;;;;;;-3.03;100.00;96882.34;1031971;28;20433;-76
2021/01/16 02:11:35;;;;;;;38.85;21.33;;;;;;;-3.00;100.00;96892.59;1027776;28;20258;-77
2021/01/16 02:12:06;;;;;;;42.33;23.13;;;;;;;-2.93;100.00;96893.16;1027912;28;20023;-76
2021/01/16 02:12:38;;;;;;;45.10;23.13;;;;;;;-2.98;100.00;96893.38;1031723;28;20037;-76
2021/01/16 02:13:09;;;;;;;44.47;22.38;;;;;;;-3.12;100.00;96880.16;1027799;28;20346;-77
2021/01/16 02:13:40;;;;;;;45.20;23.70;;;;;;;-3.04;100.00;96894.50;1027902;28;20773;-77
2021/01/16 02:14:10;;;;;;;41.50;22.05;;;;;;;-3.03;100.00;96891.00;1027909;28;20022;-77
2021/01/16 02:14:41;;;;;;;40.90;21.58;;;;;;;-3.22;100.00;96861.56;1027682;28;20025;-76
2021/01/16 02:15:31;;;;;;;45.38;23.88;;;;;;;-3.15;100.00;96875.09;1035976;28;20018;-77
2021/01/16 02:16:13;;;;;;;46.40;22.65;;;;;;;-3.33;100.00;96845.59;1023904;29;20484;-77
2021/01/16 02:16:45;;;;;;;40.80;20.92;;;;;;;-3.00;100.00;96889.16;1031723;28;20265;-76
2021/01/16 02:17:16;;;;;;;43.42;21.75;;;;;;;-3.08;100.00;96866.16;1031634;28;20288;-76
2021/01/16 02:17:50;;;;;;;44.88;23.80;;;;;;;-3.05;100.00;96894.56;1023766;29;20280;-76
2021/01/16 02:18:30;;;;;;;41.15;22.98;;;;;;;-3.20;100.00;96858.88;1027844;28;20754;-76
2021/01/16 02:19:01;;;;;;;41.90;22.08;;;;;;;-3.18;100.00;96867.47;1027827;28;20266;-77
2021/01/16 02:19:48;;;;;;;43.58;21.92;;;;;;;-3.31;100.00;96875.81;1039961;28;20026;-77
2021/01/16 02:20:33;;;;;;;45.08;22.13;;;;;;;-3.11;100.00;96895.69;1031880;28;20026;-77
2021/01/16 02:21:05;;;;;;;42.20;22.20;;;;;;;-3.07;100.00;96886.00;1031759;28;20269;-77
2021/01/16 02:21:37;;;;;;;41.13;21.75;;;;;;;-3.29;100.00;96862.72;1027722;28;20270;-77
2021/01/16 02:22:08;;;;;;;42.70;22.02;;;;;;;-3.09;100.00;96900.81;1031825;28;20336;-77
2021/01/16 02:22:53;;;;;;;44.63;22.50;;;;;;;-3.07;100.00;96893.78;1031744;28;20253;-77
2021/01/16 02:23:32;;;;;;;44.95;22.35;;;;;;;-3.42;100.00;96849.44;1031783;28;20029;-77
2021/01/16 02:24:15;;;;;;;42.63;22.30;;;;;;;-3.19;100.00;96889.16;1035903;28;20811;-77
2021/01/16 02:25:00;;;;;;;44.75;22.33;;;;;;;-3.22;100.00;96880.59;1027777;28;20073;-77
2021/01/16 02:25:41;;;;;;;41.42;21.58;;;;;;;-3.19;100.00;96881.34;1027731;28;20262;-77